Time;durP1;ratioP1;P1;durP2;ratioP2;P2;SDS_P1;SDS_P2;PMS_P1;PMS_P2;Temp;Humidity;BMP_temperature;BMP_pressure;BME280_temperature;BME280_humidity;BME280_pressure;Samples;Min_cycle;Max_cycle;Signal;HPM_P1;HPM_P2
2022/10/16 00:02:24;;;;;;;26.92;12.82;;;;;;;;;;5071794;28;20024;-40
2022/10/16 00:04:49;;;;;;;23.88;12.27;;;;;;;;;;5071947;28;20024;-40
2022/10/16 00:07:15;;;;;;;24.00;12.32;;;;;;;;;;5071580;28;20394;-40
2022/10/16 00:09:40;;;;;;;25.63;12.25;;;;;;;;;;5071717;28;20051;-39
2022/10/16 00:12:06;;;;;;;24.60;12.00;;;;;;;;;;5071913;28;20366;-39
2022/10/16 00:14:32;;;;;;;24.73;13.30;;;;;;;;;;5072023;28;20095;-40
2022/10/16 00:16:57;;;;;;;29.40;14.60;;;;;;;;;;5071556;28;20629;-40
2022/10/16 00:19:23;;;;;;;29.52;14.98;;;;;;;;;;5071558;28;20031;-39
2022/10/16 00:21:48;;;;;;;25.98;12.50;;;;;;;;;;5071737;28;20031;-40
2022/10/16 00:24:13;;;;;;;28.33;14.30;;;;;;;;;;5071912;28;20016;-40
2022/10/16 00:26:39;;;;;;;27.42;14.38;;;;;;;;;;5071628;28;20044;-40
2022/10/16 00:29:05;;;;;;;25.02;12.75;;;;;;;;;;5071556;28;20467;-39
2022/10/16 00:31:31;;;;;;;27.55;13.45;;;;;;;;;;5071446;28;20071;-40
2022/10/16 00:33:56;;;;;;;26.73;12.65;;;;;;;;;;5071377;28;20016;-39
2022/10/16 00:36:23;;;;;;;28.98;14.20;;;;;;;;;;5071719;28;20032;-39
2022/10/16 00:38:55;;;;;;;23.90;13.25;;;;;;;;;;5071704;28;20056;-39
2022/10/16 00:41:21;;;;;;;28.02;13.60;;;;;;;;;;5070396;28;20103;-39
2022/10/16 00:43:49;;;;;;;24.40;12.85;;;;;;;;;;5071611;28;20032;-40
2022/10/16 00:46:19;;;;;;;28.48;14.23;;;;;;;;;;5074221;28;20076;-39
2022/10/16 00:48:51;;;;;;;28.23;13.40;;;;;;;;;;5075024;28;20090;-39
2022/10/16 00:51:19;;;;;;;25.20;12.73;;;;;;;;;;5075416;28;20036;-39
2022/10/16 00:53:44;;;;;;;30.50;13.48;;;;;;;;;;5075267;28;20031;-39
2022/10/16 00:56:10;;;;;;;31.25;15.48;;;;;;;;;;5074963;28;20025;-39
2022/10/16 00:58:35;;;;;;;28.13;12.93;;;;;;;;;;5075046;28;20135;-39
2022/10/16 01:01:01;;;;;;;23.08;12.68;;;;;;;;;;5074791;28;20709;-40
2022/10/16 01:03:31;;;;;;;28.60;12.60;;;;;;;;;;5075138;28;20024;-41
2022/10/16 01:06:17;;;;;;;23.77;12.23;;;;;;;;;;5074727;28;20039;-39
2022/10/16 01:08:55;;;;;;;22.42;11.90;;;;;;;;;;5074803;28;20039;-40
2022/10/16 01:11:29;;;;;;;25.55;13.23;;;;;;;;;;5074877;28;20032;-40
2022/10/16 01:13:58;;;;;;;26.80;11.95;;;;;;;;;;5074890;28;20493;-39
2022/10/16 01:16:34;;;;;;;30.17;14.70;;;;;;;;;;5074641;28;20032;-40
2022/10/16 01:18:59;;;;;;;28.48;12.52;;;;;;;;;;5074105;28;20052;-39
2022/10/16 01:21:30;;;;;;;33.30;12.27;;;;;;;;;;5074067;28;20048;-40
2022/10/16 01:23:58;;;;;;;30.92;12.65;;;;;;;;;;5073847;28;20017;-39
2022/10/16 01:26:23;;;;;;;22.42;11.25;;;;;;;;;;5074147;28;20060;-40
2022/10/16 01:28:49;;;;;;;28.02;13.25;;;;;;;;;;5074151;28;20056;-39
2022/10/16 01:31:16;;;;;;;29.20;12.50;;;;;;;;;;5073903;28;20560;-40
2022/10/16 01:33:43;;;;;;;21.77;11.35;;;;;;;;;;5073758;28;20038;-40
2022/10/16 01:36:12;;;;;;;28.75;13.13;;;;;;;;;;5073946;28;20051;-40
2022/10/16 01:38:38;;;;;;;22.92;11.88;;;;;;;;;;5073753;28;20029;-40
2022/10/16 01:41:07;;;;;;;25.27;13.02;;;;;;;;;;5073745;28;20024;-39
2022/10/16 01:43:35;;;;;;;28.83;13.75;;;;;;;;;;5072601;28;20124;-40
2022/10/16 01:46:01;;;;;;;25.92;13.05;;;;;;;;;;5073197;28;20091;-39
2022/10/16 01:48:26;;;;;;;33.25;12.82;;;;;;;;;;5073908;28;20036;-40
2022/10/16 01:50:56;;;;;;;33.28;15.02;;;;;;;;;;5073327;28;20097;-40
2022/10/16 01:53:23;;;;;;;25.30;12.35;;;;;;;;;;5073751;28;20036;-40
2022/10/16 01:55:49;;;;;;;35.85;12.80;;;;;;;;;;5073235;28;20348;-39
2022/10/16 01:58:14;;;;;;;26.45;11.68;;;;;;;;;;5073334;28;20078;-39
2022/10/16 02:00:43;;;;;;;25.73;13.30;;;;;;;;;;5072199;28;20037;-39
2022/10/16 02:03:10;;;;;;;25.38;12.52;;;;;;;;;;5071977;28;20489;-40
2022/10/16 02:05:38;;;;;;;24.73;13.00;;;;;;;;;;5073333;28;20023;-39
2022/10/16 02:08:04;;;;;;;27.10;12.85;;;;;;;;;;5073077;28;20045;-40
2022/10/16 02:10:30;;;;;;;30.90;13.55;;;;;;;;;;5073045;28;20023;-40
2022/10/16 02:13:08;;;;;;;32.05;13.57;;;;;;;;;;5073292;28;20060;-40
2022/10/16 02:15:34;;;;;;;27.17;13.80;;;;;;;;;;5073122;28;20440;-40
2022/10/16 02:18:01;;;;;;;30.05;12.85;;;;;;;;;;5071663;28;20108;-39
2022/10/16 02:20:28;;;;;;;22.48;12.38;;;;;;;;;;5071583;28;20036;-40
2022/10/16 02:22:53;;;;;;;27.00;12.85;;;;;;;;;;5072886;28;20454;-39
2022/10/16 02:25:22;;;;;;;27.30;12.93;;;;;;;;;;5072937;28;20060;-39
2022/10/16 02:27:56;;;;;;;27.35;14.25;;;;;;;;;;5072565;28;20028;-38
2022/10/16 02:30:30;;;;;;;26.05;11.80;;;;;;;;;;5072970;28;20025;-40
2022/10/16 02:32:58;;;;;;;23.60;12.63;;;;;;;;;;5072891;28;20028;-40
2022/10/16 02:35:24;;;;;;;22.27;11.07;;;;;;;;;;5072637;28;20020;-39
2022/10/16 02:37:50;;;;;;;25.17;13.52;;;;;;;;;;5072529;28;20033;-40
2022/10/16 02:40:16;;;;;;;26.85;14.65;;;;;;;;;;5072480;28;20019;-39
2022/10/16 02:42:42;;;;;;;24.85;12.23;;;;;;;;;;5072315;28;20028;-39
2022/10/16 02:45:09;;;;;;;28.85;12.90;;;;;;;;;;5071146;28;20032;-39
2022/10/16 02:47:34;;;;;;;27.88;12.38;;;;;;;;;;5072632;28;20032;-39
2022/10/16 02:50:00;;;;;;;31.63;14.27;;;;;;;;;;5072190;28;20043;-39
2022/10/16 02:52:25;;;;;;;23.25;12.60;;;;;;;;;;5072298;28;20024;-40
2022/10/16 02:54:51;;;;;;;29.88;12.95;;;;;;;;;;5072439;28;20016;-40
2022/10/16 02:57:16;;;;;;;29.38;14.50;;;;;;;;;;5072470;28;20048;-39
2022/10/16 02:59:42;;;;;;;31.35;14.07;;;;;;;;;;5072353;28;20024;-40
2022/10/16 03:02:07;;;;;;;27.35;12.80;;;;;;;;;;5072139;28;20478;-39
2022/10/16 03:04:33;;;;;;;31.60;12.48;;;;;;;;;;5072031;28;20382;-39
2022/10/16 03:06:58;;;;;;;22.35;11.98;;;;;;;;;;5071578;28;20039;-39
2022/10/16 03:09:23;;;;;;;28.45;13.48;;;;;;;;;;5071568;28;20019;-40
2022/10/16 03:11:49;;;;;;;23.70;11.73;;;;;;;;;;5071823;28;20033;-39
2022/10/16 03:14:14;;;;;;;28.75;12.93;;;;;;;;;;5071856;28;20021;-40
2022/10/16 03:16:40;;;;;;;27.85;14.18;;;;;;;;;;5072171;28;20047;-39
2022/10/16 03:19:05;;;;;;;25.38;11.38;;;;;;;;;;5071821;28;20422;-40
2022/10/16 03:21:30;;;;;;;26.10;12.43;;;;;;;;;;5070496;28;20589;-39
2022/10/16 03:23:56;;;;;;;30.00;14.32;;;;;;;;;;5071961;28;20024;-39
2022/10/16 03:26:21;;;;;;;30.83;14.02;;;;;;;;;;5071640;28;20075;-39
2022/10/16 03:28:46;;;;;;;24.88;12.63;;;;;;;;;;5071557;28;20083;-39
2022/10/16 03:31:12;;;;;;;24.42;12.60;;;;;;;;;;5071705;28;20032;-39
2022/10/16 03:33:37;;;;;;;26.95;13.00;;;;;;;;;;5071891;28;20032;-39
2022/10/16 03:36:03;;;;;;;24.83;12.75;;;;;;;;;;5071619;28;20414;-39
2022/10/16 03:38:28;;;;;;;25.92;13.07;;;;;;;;;;5071556;28;20025;-40
2022/10/16 03:40:54;;;;;;;26.27;13.02;;;;;;;;;;5071654;28;20028;-40
2022/10/16 03:43:19;;;;;;;30.38;14.52;;;;;;;;;;5071627;28;20537;-40
2022/10/16 03:45:44;;;;;;;28.52;14.65;;;;;;;;;;5071207;28;20052;-39
2022/10/16 03:48:10;;;;;;;28.15;12.65;;;;;;;;;;5071457;28;20036;-39
2022/10/16 03:50:35;;;;;;;27.67;12.00;;;;;;;;;;5071460;28;20681;-39
2022/10/16 03:53:01;;;;;;;31.60;13.65;;;;;;;;;;5071337;28;20428;-40
2022/10/16 03:55:26;;;;;;;22.45;11.52;;;;;;;;;;5071497;28;20368;-40
2022/10/16 03:57:51;;;;;;;25.90;13.88;;;;;;;;;;5071311;28;20029;-39
2022/10/16 04:00:17;;;;;;;32.75;13.90;;;;;;;;;;5071284;28;20032;-39
2022/10/16 04:02:42;;;;;;;21.63;10.68;;;;;;;;;;5071508;28;20052;-39
2022/10/16 04:05:08;;;;;;;24.85;13.90;;;;;;;;;;5071557;28;20454;-40
2022/10/16 04:07:33;;;;;;;27.50;12.20;;;;;;;;;;5071237;28;20470;-40
2022/10/16 04:09:59;;;;;;;21.83;11.48;;;;;;;;;;5071138;28;20024;-39
2022/10/16 04:12:25;;;;;;;28.05;13.40;;;;;;;;;;5071203;28;20025;-40
2022/10/16 04:14:51;;;;;;;29.17;13.02;;;;;;;;;;5071377;28;20036;-39
2022/10/16 04:17:16;;;;;;;21.42;12.10;;;;;;;;;;5071155;28;20020;-39
2022/10/16 04:19:41;;;;;;;26.63;13.65;;;;;;;;;;5073448;28;20066;-39
2022/10/16 04:22:07;;;;;;;22.00;10.70;;;;;;;;;;5075389;28;20016;-40
2022/10/16 04:24:33;;;;;;;36.22;14.73;;;;;;;;;;5075170;28;20479;-39
2022/10/16 04:26:58;;;;;;;24.98;11.60;;;;;;;;;;5074995;28;20032;-40
2022/10/16 04:29:23;;;;;;;29.10;12.80;;;;;;;;;;5074072;28;20031;-39
2022/10/16 04:31:49;;;;;;;22.98;12.82;;;;;;;;;;5073604;28;20437;-39
2022/10/16 04:34:14;;;;;;;26.02;11.68;;;;;;;;;;5075011;28;20028;-39
2022/10/16 04:36:40;;;;;;;28.95;12.93;;;;;;;;;;5075139;28;20017;-39
2022/10/16 04:39:05;;;;;;;22.65;11.73;;;;;;;;;;5074827;28;20470;-39
2022/10/16 04:41:30;;;;;;;35.67;14.15;;;;;;;;;;5074817;28;20017;-40
2022/10/16 04:43:56;;;;;;;26.00;12.13;;;;;;;;;;5074578;28;20103;-39
2022/10/16 04:46:21;;;;;;;26.23;12.80;;;;;;;;;;5074685;28;20048;-40
2022/10/16 04:48:47;;;;;;;28.58;13.27;;;;;;;;;;5074664;28;20029;-39
2022/10/16 04:51:12;;;;;;;28.35;12.95;;;;;;;;;;5074613;28;20028;-38
2022/10/16 04:53:37;;;;;;;26.33;14.15;;;;;;;;;;5073379;28;20043;-39
2022/10/16 04:56:03;;;;;;;25.13;12.80;;;;;;;;;;5074526;28;20032;-39
2022/10/16 04:58:28;;;;;;;23.77;12.75;;;;;;;;;;5074456;28;20037;-40
2022/10/16 05:00:54;;;;;;;23.33;12.95;;;;;;;;;;5074304;28;20052;-40
2022/10/16 05:03:19;;;;;;;24.20;12.25;;;;;;;;;;5074736;28;20047;-40
2022/10/16 05:05:45;;;;;;;27.13;11.32;;;;;;;;;;5074301;28;20060;-39
2022/10/16 05:08:14;;;;;;;22.75;10.85;;;;;;;;;;5074242;28;20047;-40
2022/10/16 05:10:43;;;;;;;27.15;14.05;;;;;;;;;;5072986;28;20021;-39
2022/10/16 05:13:09;;;;;;;27.02;13.27;;;;;;;;;;5074281;28;20035;-39
2022/10/16 05:15:35;;;;;;;25.65;13.13;;;;;;;;;;5074250;28;20025;-40
2022/10/16 05:18:00;;;;;;;24.45;11.63;;;;;;;;;;5074308;28;20077;-40
2022/10/16 05:20:25;;;;;;;26.60;11.82;;;;;;;;;;5074345;28;20402;-40
2022/10/16 05:22:51;;;;;;;22.95;11.38;;;;;;;;;;5074297;28;20112;-39
2022/10/16 05:25:16;;;;;;;21.70;11.27;;;;;;;;;;5073994;28;20063;-40
2022/10/16 05:27:42;;;;;;;19.13;10.55;;;;;;;;;;5073913;28;20036;-39
2022/10/16 05:30:07;;;;;;;22.50;12.40;;;;;;;;;;5073580;28;20425;-40
2022/10/16 05:32:33;;;;;;;23.25;11.15;;;;;;;;;;5073844;28;20479;-39
2022/10/16 05:34:59;;;;;;;20.80;10.65;;;;;;;;;;5073746;28;20374;-39
2022/10/16 05:37:25;;;;;;;25.88;12.32;;;;;;;;;;5073894;28;20111;-40
2022/10/16 05:39:51;;;;;;;28.77;13.10;;;;;;;;;;5073744;28;20526;-39
2022/10/16 05:42:16;;;;;;;24.55;11.13;;;;;;;;;;5074035;28;20040;-39
2022/10/16 05:44:42;;;;;;;20.73;10.85;;;;;;;;;;5073647;28;20021;-40
2022/10/16 05:47:08;;;;;;;29.75;12.77;;;;;;;;;;5073368;28;20490;-40
2022/10/16 05:49:33;;;;;;;22.98;11.48;;;;;;;;;;5073576;28;20025;-39
2022/10/16 05:51:58;;;;;;;23.30;11.65;;;;;;;;;;5073663;28;20431;-39
2022/10/16 05:54:24;;;;;;;26.17;11.07;;;;;;;;;;5073730;28;20402;-39
2022/10/16 05:56:49;;;;;;;19.88;10.63;;;;;;;;;;5073616;28;20166;-39
2022/10/16 05:59:15;;;;;;;23.48;10.77;;;;;;;;;;5073419;28;20501;-40
2022/10/16 06:01:40;;;;;;;19.83;11.15;;;;;;;;;;5073558;28;20055;-40
2022/10/16 06:04:09;;;;;;;25.52;12.02;;;;;;;;;;5073138;28;20024;-39
2022/10/16 06:06:36;;;;;;;18.40;10.10;;;;;;;;;;5073167;28;20123;-39
2022/10/16 06:09:01;;;;;;;25.15;12.85;;;;;;;;;;5072993;28;20021;-39
2022/10/16 06:11:28;;;;;;;21.42;11.07;;;;;;;;;;5073423;28;20081;-39
2022/10/16 06:13:56;;;;;;;28.00;13.07;;;;;;;;;;5073322;28;20374;-40
2022/10/16 06:16:22;;;;;;;23.55;12.25;;;;;;;;;;5072941;28;20035;-39
2022/10/16 06:18:50;;;;;;;27.05;13.50;;;;;;;;;;5072900;28;20040;-40
2022/10/16 06:21:20;;;;;;;19.52;10.20;;;;;;;;;;5071980;28;20051;-40
2022/10/16 06:23:46;;;;;;;23.17;12.82;;;;;;;;;;5072766;28;20036;-39
2022/10/16 06:26:13;;;;;;;22.58;12.25;;;;;;;;;;5073084;28;20383;-39
2022/10/16 06:28:39;;;;;;;32.95;13.93;;;;;;;;;;5072800;28;20102;-39
2022/10/16 06:31:05;;;;;;;23.00;11.15;;;;;;;;;;5072619;28;20191;-39
2022/10/16 06:33:31;;;;;;;29.15;14.18;;;;;;;;;;5073014;28;20021;-39
2022/10/16 06:36:00;;;;;;;27.75;12.57;;;;;;;;;;5072621;28;20031;-40
2022/10/16 06:38:26;;;;;;;27.30;12.70;;;;;;;;;;5072577;28;20013;-39
2022/10/16 06:40:53;;;;;;;24.17;12.18;;;;;;;;;;5072523;28;20066;-39
2022/10/16 06:43:18;;;;;;;24.92;10.80;;;;;;;;;;5071362;28;20024;-39
2022/10/16 06:45:50;;;;;;;32.42;13.18;;;;;;;;;;5072502;28;20052;-39
2022/10/16 06:48:15;;;;;;;20.17;10.75;;;;;;;;;;5072767;28;20448;-39
2022/10/16 06:50:41;;;;;;;21.63;11.88;;;;;;;;;;5072303;28;20032;-40
2022/10/16 06:53:06;;;;;;;33.22;14.50;;;;;;;;;;5072561;28;20032;-39
2022/10/16 06:55:32;;;;;;;30.90;14.43;;;;;;;;;;5072780;28;20450;-39
2022/10/16 06:57:57;;;;;;;26.70;13.30;;;;;;;;;;5072368;28;20093;-39
2022/10/16 07:00:23;;;;;;;23.35;13.27;;;;;;;;;;5072101;28;20485;-39
2022/10/16 07:02:49;;;;;;;31.08;14.70;;;;;;;;;;5072146;28;20111;-39
2022/10/16 07:05:14;;;;;;;27.15;13.50;;;;;;;;;;5072037;28;20032;-39
2022/10/16 07:07:40;;;;;;;24.85;9.82;;;;;;;;;;5072035;28;20044;-39
2022/10/16 07:10:05;;;;;;;20.92;12.75;;;;;;;;;;5072115;28;20362;-41
2022/10/16 07:12:32;;;;;;;22.90;11.88;;;;;;;;;;5071883;28;20394;-39
2022/10/16 07:14:58;;;;;;;21.42;10.75;;;;;;;;;;5071849;28;20016;-39
2022/10/16 07:17:23;;;;;;;25.90;13.05;;;;;;;;;;5071840;28;20126;-39
2022/10/16 07:19:52;;;;;;;23.60;11.00;;;;;;;;;;5071772;28;20019;-39
2022/10/16 07:22:18;;;;;;;27.13;12.20;;;;;;;;;;5071944;28;20111;-39
2022/10/16 07:24:44;;;;;;;23.42;10.48;;;;;;;;;;5071775;28;20470;-39
2022/10/16 07:27:10;;;;;;;20.80;11.38;;;;;;;;;;5071586;28;20032;-39
2022/10/16 07:29:35;;;;;;;24.90;11.48;;;;;;;;;;5071712;28;20043;-40
2022/10/16 07:32:01;;;;;;;27.42;14.07;;;;;;;;;;5071674;28;20028;-39
2022/10/16 07:34:27;;;;;;;24.88;12.13;;;;;;;;;;5071920;28;20017;-39
2022/10/16 07:36:52;;;;;;;22.23;11.68;;;;;;;;;;5071494;28;20487;-39
2022/10/16 07:39:18;;;;;;;27.27;11.73;;;;;;;;;;5071888;28;20043;-40
2022/10/16 07:41:43;;;;;;;28.77;13.85;;;;;;;;;;5071428;28;20502;-39
2022/10/16 07:44:09;;;;;;;23.60;12.98;;;;;;;;;;5071515;28;20067;-39
2022/10/16 07:46:35;;;;;;;25.20;12.25;;;;;;;;;;5071249;28;20052;-39
2022/10/16 07:49:01;;;;;;;22.92;12.55;;;;;;;;;;5071329;28;20029;-39
2022/10/16 07:51:27;;;;;;;19.80;10.43;;;;;;;;;;5071389;28;20051;-39
2022/10/16 07:53:52;;;;;;;30.23;13.25;;;;;;;;;;5070914;28;20020;-39
2022/10/16 07:56:18;;;;;;;21.00;10.55;;;;;;;;;;5071655;28;20070;-40
2022/10/16 07:58:44;;;;;;;24.58;12.65;;;;;;;;;;5071544;28;20469;-39
2022/10/16 08:01:11;;;;;;;23.98;11.88;;;;;;;;;;5071261;28;20031;-39
2022/10/16 08:03:37;;;;;;;29.85;12.05;;;;;;;;;;5071363;28;20429;-39
2022/10/16 08:06:03;;;;;;;26.00;12.13;;;;;;;;;;5071273;28;20085;-39
2022/10/16 08:08:29;;;;;;;27.98;14.73;;;;;;;;;;5071244;28;20037;-39
2022/10/16 08:10:54;;;;;;;21.85;11.93;;;;;;;;;;5071112;28;20067;-40
2022/10/16 08:13:20;;;;;;;24.65;12.13;;;;;;;;;;5071254;28;20096;-38
2022/10/16 08:15:46;;;;;;;21.80;9.35;;;;;;;;;;5071294;28;20028;-39
2022/10/16 08:18:12;;;;;;;27.48;13.35;;;;;;;;;;5071208;28;20031;-39
2022/10/16 08:20:38;;;;;;;22.67;11.63;;;;;;;;;;5071106;28;20044;-40
2022/10/16 08:23:04;;;;;;;24.77;12.18;;;;;;;;;;5071503;28;20117;-40
2022/10/16 08:25:30;;;;;;;21.20;11.10;;;;;;;;;;5071013;28;20645;-39
2022/10/16 08:27:55;;;;;;;20.63;11.90;;;;;;;;;;5071042;28;20089;-39
2022/10/16 08:30:22;;;;;;;24.95;11.95;;;;;;;;;;5071159;28;20116;-40
2022/10/16 08:32:47;;;;;;;32.00;14.10;;;;;;;;;;5070050;28;20050;-40
2022/10/16 08:35:14;;;;;;;23.70;12.23;;;;;;;;;;5071080;28;20467;-39
2022/10/16 08:37:40;;;;;;;25.45;12.25;;;;;;;;;;5070973;28;20532;-39
2022/10/16 08:40:07;;;;;;;27.27;11.82;;;;;;;;;;5069910;28;20025;-39
2022/10/16 08:42:44;;;;;;;24.27;11.20;;;;;;;;;;5069722;28;20036;-40
2022/10/16 08:45:15;;;;;;;22.35;11.90;;;;;;;;;;5070949;28;20058;-39
2022/10/16 08:47:41;;;;;;;24.25;11.50;;;;;;;;;;5070831;28;20472;-39
2022/10/16 08:50:12;;;;;;;27.52;12.43;;;;;;;;;;5070741;28;20024;-39
2022/10/16 08:52:43;;;;;;;36.83;12.98;;;;;;;;;;5071037;28;20512;-40
2022/10/16 08:55:19;;;;;;;23.35;10.82;;;;;;;;;;5070720;28;20032;-40
2022/10/16 08:57:44;;;;;;;24.45;11.07;;;;;;;;;;5070887;28;20033;-39
2022/10/16 09:00:13;;;;;;;22.50;11.70;;;;;;;;;;5070510;28;20020;-39
2022/10/16 09:02:40;;;;;;;22.88;11.68;;;;;;;;;;5070649;28;20048;-39
2022/10/16 09:05:06;;;;;;;24.45;11.85;;;;;;;;;;5070651;28;20027;-39
2022/10/16 09:07:38;;;;;;;26.70;13.02;;;;;;;;;;5073918;28;20036;-39
2022/10/16 09:10:13;;;;;;;25.75;11.02;;;;;;;;;;5072901;28;20028;-39
2022/10/16 09:12:53;;;;;;;19.13;10.57;;;;;;;;;;5074329;28;20072;-39
2022/10/16 09:15:37;;;;;;;21.75;10.93;;;;;;;;;;5074181;28;20039;-39
2022/10/16 09:18:14;;;;;;;25.45;12.73;;;;;;;;;;5072799;28;20060;-39
2022/10/16 09:20:40;;;;;;;27.25;12.25;;;;;;;;;;5074305;28;20370;-39
2022/10/16 09:23:05;;;;;;;24.15;13.25;;;;;;;;;;5074112;28;20042;-39
2022/10/16 09:25:32;;;;;;;20.90;12.27;;;;;;;;;;5072795;28;20116;-39
2022/10/16 09:28:00;;;;;;;25.30;11.80;;;;;;;;;;5073868;28;20051;-41
2022/10/16 09:30:29;;;;;;;25.88;12.43;;;;;;;;;;5074179;28;20024;-40
2022/10/16 09:32:55;;;;;;;23.92;12.38;;;;;;;;;;5073883;28;20016;-39
2022/10/16 09:35:24;;;;;;;25.65;12.50;;;;;;;;;;5073879;28;20021;-39
2022/10/16 09:37:51;;;;;;;23.48;11.60;;;;;;;;;;5073998;28;20062;-40
2022/10/16 09:40:24;;;;;;;23.75;12.63;;;;;;;;;;5074028;28;20090;-41
2022/10/16 09:42:50;;;;;;;;;;;;;;;;;;5073979;28;20068;-40
2022/10/16 09:45:23;;;;;;;21.67;10.95;;;;;;;;;;5073562;28;19958;-39
2022/10/16 09:47:48;;;;;;;24.45;10.65;;;;;;;;;;5073736;28;20402;-39
2022/10/16 09:50:27;;;;;;;32.78;14.65;;;;;;;;;;5073819;28;20048;-39
2022/10/16 09:53:11;;;;;;;28.17;12.60;;;;;;;;;;5073384;28;20034;-39
2022/10/16 09:55:47;;;;;;;23.50;12.10;;;;;;;;;;5073731;28;20062;-39
2022/10/16 09:58:13;;;;;;;24.27;11.73;;;;;;;;;;5073351;28;20112;-39
2022/10/16 10:00:41;;;;;;;23.52;11.60;;;;;;;;;;5073481;28;20117;-39
2022/10/16 10:03:10;;;;;;;32.05;12.35;;;;;;;;;;5073212;28;20039;-39
2022/10/16 10:05:35;;;;;;;24.35;10.27;;;;;;;;;;5073644;28;20098;-39
2022/10/16 10:08:06;;;;;;;21.45;12.98;;;;;;;;;;5073170;28;20471;-40
2022/10/16 10:10:39;;;;;;;23.27;12.60;;;;;;;;;;5073157;28;20024;-40
2022/10/16 10:13:16;;;;;;;21.65;10.68;;;;;;;;;;5073185;28;20070;-39
2022/10/16 10:15:42;;;;;;;29.95;14.05;;;;;;;;;;5073129;28;20363;-39
2022/10/16 10:18:18;;;;;;;22.85;12.40;;;;;;;;;;5072617;28;20024;-40
2022/10/16 10:20:44;;;;;;;19.95;10.27;;;;;;;;;;5073292;28;20029;-39
2022/10/16 10:23:23;;;;;;;24.40;10.50;;;;;;;;;;5072951;28;20078;-41
2022/10/16 10:26:01;;;;;;;22.90;11.68;;;;;;;;;;5072825;28;20098;-40
2022/10/16 10:28:38;;;;;;;22.25;11.15;;;;;;;;;;5072857;28;20094;-39
2022/10/16 10:31:10;;;;;;;30.40;13.13;;;;;;;;;;5072690;28;20388;-40
2022/10/16 10:33:46;;;;;;;21.33;11.18;;;;;;;;;;5072649;28;20031;-40
2022/10/16 10:36:14;;;;;;;22.48;10.95;;;;;;;;;;5072922;28;20037;-39
2022/10/16 10:38:40;;;;;;;37.38;12.48;;;;;;;;;;5071260;28;20024;-40
2022/10/16 10:41:14;;;;;;;23.48;11.05;;;;;;;;;;5072514;28;20360;-40
2022/10/16 10:43:46;;;;;;;23.50;12.38;;;;;;;;;;5072902;28;20032;-40
2022/10/16 10:46:20;;;;;;;26.52;10.95;;;;;;;;;;5072240;28;20049;-40
2022/10/16 10:48:57;;;;;;;24.38;12.10;;;;;;;;;;5072406;28;20124;-39
2022/10/16 10:51:30;;;;;;;31.90;13.05;;;;;;;;;;5072357;28;20040;-40
2022/10/16 10:54:04;;;;;;;24.42;10.85;;;;;;;;;;5070957;28;20178;-40
2022/10/16 10:56:52;;;;;;;23.58;11.63;;;;;;;;;;5072539;28;20492;-48
2022/10/16 10:59:35;;;;;;;20.98;11.63;;;;;;;;;;5072242;28;20384;-40
2022/10/16 11:02:17;;;;;;;28.58;12.40;;;;;;;;;;5072020;28;20070;-40
2022/10/16 11:04:58;;;;;;;21.02;10.35;;;;;;;;;;5072183;28;20505;-39
2022/10/16 11:07:36;;;;;;;33.05;14.15;;;;;;;;;;5072235;28;20372;-40
2022/10/16 11:10:12;;;;;;;31.77;13.57;;;;;;;;;;5070717;28;20413;-40
2022/10/16 11:12:41;;;;;;;36.50;13.98;;;;;;;;;;5071992;28;20052;-40
2022/10/16 11:15:16;;;;;;;29.77;14.32;;;;;;;;;;5070652;28;20016;-40
2022/10/16 11:17:44;;;;;;;28.02;14.00;;;;;;;;;;5071934;28;20494;-39
2022/10/16 11:20:19;;;;;;;28.10;12.30;;;;;;;;;;5071669;28;20039;-40
2022/10/16 11:22:51;;;;;;;32.80;13.98;;;;;;;;;;5070717;28;20052;-40
2022/10/16 11:25:23;;;;;;;35.47;14.43;;;;;;;;;;5071816;28;20032;-40
2022/10/16 11:27:58;;;;;;;30.55;13.48;;;;;;;;;;5071561;28;20059;-40
2022/10/16 11:30:24;;;;;;;36.72;14.60;;;;;;;;;;5071294;28;20043;-40
2022/10/16 11:32:50;;;;;;;33.67;13.60;;;;;;;;;;5071793;28;20089;-40
2022/10/16 11:35:19;;;;;;;37.85;16.02;;;;;;;;;;5071956;28;20466;-40
2022/10/16 11:37:45;;;;;;;23.67;12.10;;;;;;;;;;5071584;28;20059;-39
2022/10/16 11:40:24;;;;;;;30.63;13.60;;;;;;;;;;5071574;28;20448;-39
2022/10/16 11:42:54;;;;;;;36.92;16.27;;;;;;;;;;5071424;28;20037;-39
2022/10/16 11:45:19;;;;;;;29.77;14.10;;;;;;;;;;5071405;28;20020;-40
2022/10/16 11:47:47;;;;;;;31.30;14.85;;;;;;;;;;5071739;28;20101;-39
2022/10/16 11:50:25;;;;;;;57.05;18.92;;;;;;;;;;5070307;28;20040;-40
2022/10/16 11:52:58;;;;;;;42.45;17.17;;;;;;;;;;5071795;28;20032;-40
2022/10/16 11:55:33;;;;;;;28.25;13.82;;;;;;;;;;5071412;28;20062;-39
2022/10/16 11:58:07;;;;;;;31.80;13.43;;;;;;;;;;5071522;28;20037;-40
2022/10/16 12:00:46;;;;;;;41.55;15.48;;;;;;;;;;5071336;28;20494;-40
2022/10/16 12:03:11;;;;;;;30.33;12.40;;;;;;;;;;5070346;28;20046;-39
2022/10/16 12:05:51;;;;;;;42.33;18.10;;;;;;;;;;5071322;28;20458;-40
2022/10/16 12:08:17;;;;;;;39.22;16.15;;;;;;;;;;5071226;28;20036;-43
2022/10/16 12:10:43;;;;;;;45.45;15.35;;;;;;;;;;5071547;28;20020;-40
2022/10/16 12:13:28;;;;;;;40.80;15.85;;;;;;;;;;5071487;28;20258;-40
2022/10/16 12:16:03;;;;;;;44.03;20.80;;;;;;;;;;5071432;28;20043;-39
2022/10/16 12:18:29;;;;;;;42.25;17.05;;;;;;;;;;5071159;28;20044;-40
2022/10/16 12:20:59;;;;;;;38.38;16.00;;;;;;;;;;5071008;28;20043;-40
2022/10/16 12:23:25;;;;;;;40.45;16.83;;;;;;;;;;5071180;28;20425;-40
2022/10/16 12:25:58;;;;;;;39.38;15.52;;;;;;;;;;5071336;28;20028;-40
2022/10/16 12:28:46;;;;;;;33.08;14.38;;;;;;;;;;5071304;28;20044;-40
2022/10/16 12:31:44;;;;;;;35.03;15.63;;;;;;;;;;5071382;28;20497;-39
2022/10/16 12:34:26;;;;;;;39.67;15.40;;;;;;;;;;5070928;28;20025;-40
2022/10/16 12:36:53;;;;;;;31.55;14.82;;;;;;;;;;5071321;28;20082;-39
2022/10/16 12:39:24;;;;;;;45.05;16.85;;;;;;;;;;5071253;28;20366;-40
2022/10/16 12:42:00;;;;;;;36.00;16.83;;;;;;;;;;5074815;28;20036;-39
2022/10/16 12:44:31;;;;;;;35.55;15.73;;;;;;;;;;5075170;28;20043;-39
2022/10/16 12:46:57;;;;;;;42.47;16.92;;;;;;;;;;5074470;28;20056;-40
2022/10/16 12:49:29;;;;;;;38.75;16.23;;;;;;;;;;5074674;28;20020;-39
2022/10/16 12:51:55;;;;;;;46.15;18.40;;;;;;;;;;5074505;28;20029;-39
2022/10/16 12:54:25;;;;;;;36.58;15.55;;;;;;;;;;5074552;28;20102;-39
2022/10/16 12:57:09;;;;;;;38.72;15.70;;;;;;;;;;5074778;28;20382;-39
2022/10/16 13:00:12;;;;;;;31.38;15.77;;;;;;;;;;5074739;28;20070;-39
2022/10/16 13:02:48;;;;;;;36.15;16.60;;;;;;;;;;5074287;28;20024;-39
2022/10/16 13:05:17;;;;;;;44.65;17.55;;;;;;;;;;5074385;28;20024;-39
2022/10/16 13:07:51;;;;;;;35.33;16.52;;;;;;;;;;5074617;28;20097;-39
2022/10/16 13:10:23;;;;;;;37.97;17.02;;;;;;;;;;5074465;28;20028;-39
2022/10/16 13:13:01;;;;;;;33.93;15.47;;;;;;;;;;5074680;28;20086;-39
2022/10/16 13:15:29;;;;;;;36.47;16.38;;;;;;;;;;5074255;28;20103;-39
2022/10/16 13:18:00;;;;;;;32.28;15.75;;;;;;;;;;5074290;28;20095;-39
2022/10/16 13:20:25;;;;;;;27.85;13.57;;;;;;;;;;5074133;28;20032;-39
2022/10/16 13:23:11;;;;;;;39.70;15.65;;;;;;;;;;5074130;28;20021;-40
2022/10/16 13:25:36;;;;;;;32.15;14.70;;;;;;;;;;5069999;28;20045;-39
2022/10/16 13:28:06;;;;;;;43.67;18.30;;;;;;;;;;5074148;28;20039;-40
2022/10/16 13:30:36;;;;;;;33.58;15.10;;;;;;;;;;5073913;28;20054;-39
2022/10/16 13:33:04;;;;;;;47.70;17.73;;;;;;;;;;5074137;28;20382;-39
2022/10/16 13:35:31;;;;;;;40.55;17.48;;;;;;;;;;5073962;28;20468;-40
2022/10/16 13:38:04;;;;;;;42.00;17.10;;;;;;;;;;5074012;28;20106;-40
2022/10/16 13:40:30;;;;;;;34.25;15.70;;;;;;;;;;5073807;28;20032;-40
2022/10/16 13:42:55;;;;;;;31.88;13.82;;;;;;;;;;5073984;28;20036;-40
2022/10/16 13:45:22;;;;;;;37.95;15.98;;;;;;;;;;5073535;28;20413;-40
2022/10/16 13:47:48;;;;;;;35.92;15.98;;;;;;;;;;5073655;28;20048;-39
2022/10/16 13:50:16;;;;;;;45.83;16.30;;;;;;;;;;5073885;28;20033;-39
2022/10/16 13:52:41;;;;;;;44.22;17.52;;;;;;;;;;5073106;28;20021;-39
2022/10/16 13:55:11;;;;;;;34.95;13.60;;;;;;;;;;5073482;28;20051;-39
2022/10/16 13:57:37;;;;;;;37.45;15.75;;;;;;;;;;5073584;28;20028;-40
2022/10/16 14:00:03;;;;;;;37.95;14.57;;;;;;;;;;5073209;28;20020;-40
2022/10/16 14:02:29;;;;;;;33.28;15.65;;;;;;;;;;5073505;28;20024;-39
2022/10/16 14:04:55;;;;;;;44.50;19.30;;;;;;;;;;5073539;28;20032;-39
2022/10/16 14:07:25;;;;;;;42.45;17.35;;;;;;;;;;5073193;28;20063;-40
2022/10/16 14:09:52;;;;;;;36.17;15.75;;;;;;;;;;5073335;28;20029;-40
2022/10/16 14:12:17;;;;;;;35.58;13.93;;;;;;;;;;5073195;28;20508;-40
2022/10/16 14:14:44;;;;;;;33.33;14.88;;;;;;;;;;5073445;28;20138;-39
2022/10/16 14:17:13;;;;;;;30.40;14.68;;;;;;;;;;5073149;28;20047;-39
2022/10/16 14:19:39;;;;;;;27.83;14.52;;;;;;;;;;5073021;28;20039;-40
2022/10/16 14:22:16;;;;;;;39.95;16.65;;;;;;;;;;5072990;28;20020;-40
2022/10/16 14:24:42;;;;;;;41.05;15.40;;;;;;;;;;5073223;28;20037;-39
2022/10/16 14:27:26;;;;;;;36.55;15.85;;;;;;;;;;5072746;28;20367;-40